createdAt,value
2023-04-27T00:01:35.731Z,19.08
2023-04-27T00:04:04.509Z,21.98
2023-04-27T00:06:32.498Z,24.67
2023-04-27T00:08:59.583Z,13.60
2023-04-27T00:11:26.303Z,19.48
2023-04-27T00:13:52.887Z,17.52
2023-04-27T00:16:19.552Z,16.63
2023-04-27T00:18:46.762Z,15.57
2023-04-27T00:21:13.368Z,26.85
2023-04-27T00:23:39.949Z,23.88
2023-04-27T00:26:06.622Z,21.70
2023-04-27T00:28:33.186Z,19.48
2023-04-27T00:31:12.158Z,20.35
2023-04-27T00:33:38.730Z,18.77
2023-04-27T00:36:05.665Z,19.08
2023-04-27T00:38:32.271Z,20.52
2023-04-27T00:41:02.935Z,17.00
2023-04-27T00:43:29.866Z,16.48
2023-04-27T00:45:56.926Z,16.67
2023-04-27T00:48:24.628Z,12.60
2023-04-27T00:50:51.348Z,20.20
2023-04-27T00:53:18.415Z,19.42
2023-04-27T00:55:45.014Z,16.10
2023-04-27T00:58:11.859Z,13.90
2023-04-27T01:00:40.054Z,18.13
2023-04-27T01:03:07.627Z,17.25
2023-04-27T01:05:34.932Z,12.10
2023-04-27T01:08:01.648Z,12.75
2023-04-27T01:10:28.473Z,12.27
2023-04-27T01:12:55.578Z,19.15
2023-04-27T01:15:22.222Z,16.08
2023-04-27T01:17:48.858Z,15.32
2023-04-27T01:20:15.535Z,15.52
2023-04-27T01:22:43.281Z,18.92
2023-04-27T01:25:10.145Z,14.95
2023-04-27T01:27:36.707Z,16.17
2023-04-27T01:30:03.911Z,14.27
2023-04-27T01:32:31.009Z,13.75
2023-04-27T01:34:57.648Z,13.73
2023-04-27T01:37:26.504Z,19.02
2023-04-27T01:39:53.157Z,12.00
2023-04-27T01:42:19.769Z,17.88
2023-04-27T01:44:46.343Z,10.90
2023-04-27T01:47:12.952Z,15.82
2023-04-27T01:49:40.512Z,11.57
2023-04-27T01:52:07.108Z,13.20
2023-04-27T01:54:33.755Z,14.00
2023-04-27T01:57:01.804Z,14.38
2023-04-27T01:59:28.549Z,14.00
2023-04-27T02:01:56.374Z,17.10
2023-04-27T02:04:23.144Z,13.18
2023-04-27T02:06:49.801Z,12.43
2023-04-27T02:09:16.520Z,10.80
2023-04-27T02:11:43.108Z,12.30
2023-04-27T02:14:09.715Z,17.33
2023-04-27T02:16:36.512Z,14.45
2023-04-27T02:19:04.337Z,14.13
2023-04-27T02:21:31.090Z,19.50
2023-04-27T02:23:57.668Z,20.17
2023-04-27T02:26:29.245Z,16.60
2023-04-27T02:28:57.617Z,16.52
2023-04-27T02:31:24.657Z,16.40
2023-04-27T02:33:51.373Z,19.65
2023-04-27T02:36:18.516Z,14.43
2023-04-27T02:38:45.234Z,13.85
2023-04-27T02:41:11.856Z,16.25
2023-04-27T02:43:38.461Z,19.60
2023-04-27T02:46:06.207Z,12.80
2023-04-27T02:48:32.897Z,16.58
2023-04-27T02:50:59.469Z,15.55
2023-04-27T02:53:26.249Z,12.65
2023-04-27T02:55:52.884Z,13.93
2023-04-27T02:58:19.918Z,26.42
2023-04-27T03:00:47.186Z,14.55
2023-04-27T03:03:15.558Z,21.80
2023-04-27T03:05:42.419Z,16.92
2023-04-27T03:08:09.069Z,11.95
2023-04-27T03:10:36.031Z,14.70
2023-04-27T03:13:05.012Z,16.90
2023-04-27T03:15:32.081Z,20.15
2023-04-27T03:17:58.722Z,18.02
2023-04-27T03:20:25.428Z,13.38
2023-04-27T03:22:53.579Z,18.02
2023-04-27T03:25:20.435Z,26.50
2023-04-27T03:27:47.024Z,16.88
2023-04-27T03:30:13.910Z,18.00
2023-04-27T03:32:40.649Z,16.77
2023-04-27T03:35:08.013Z,15.20
2023-04-27T03:37:34.637Z,15.07
2023-04-27T03:40:01.410Z,19.70
2023-04-27T03:42:29.574Z,14.13
2023-04-27T03:44:56.448Z,17.90
2023-04-27T03:47:23.443Z,20.42
2023-04-27T03:49:50.120Z,16.45
2023-04-27T03:52:16.757Z,20.25
2023-04-27T03:54:43.492Z,15.13
2023-04-27T03:57:11.617Z,14.27
2023-04-27T03:59:38.298Z,14.25
2023-04-27T04:02:05.618Z,19.25
2023-04-27T04:04:32.459Z,18.50
2023-04-27T04:06:59.197Z,18.83
2023-04-27T04:09:25.806Z,15.88
2023-04-27T04:11:52.864Z,21.75
2023-04-27T04:14:19.587Z,18.75
2023-04-27T04:16:46.763Z,21.05
2023-04-27T04:19:13.960Z,19.40
2023-04-27T04:21:41.496Z,17.52
2023-04-27T04:24:08.401Z,19.77
2023-04-27T04:26:35.443Z,19.20
2023-04-27T04:29:02.138Z,21.88
2023-04-27T04:31:29.690Z,15.02
2023-04-27T04:33:56.781Z,17.95
2023-04-27T04:36:23.948Z,21.33
2023-04-27T04:38:57.180Z,18.35
2023-04-27T04:41:26.111Z,20.30
2023-04-27T04:43:52.843Z,22.25
2023-04-27T04:46:19.985Z,22.70
2023-04-27T04:48:47.024Z,27.13
2023-04-27T04:51:13.791Z,18.48
2023-04-27T04:53:40.374Z,19.15
2023-04-27T04:56:13.773Z,21.58
2023-04-27T04:58:40.679Z,20.38
2023-04-27T05:01:07.432Z,21.20
2023-04-27T05:03:34.321Z,18.55
2023-04-27T05:06:01.222Z,19.48
2023-04-27T05:08:27.875Z,26.55
2023-04-27T05:10:54.734Z,20.35
2023-04-27T05:13:21.921Z,22.52
2023-04-27T05:15:48.626Z,18.50
2023-04-27T05:18:18.526Z,27.40
2023-04-27T05:20:45.384Z,21.08
2023-04-27T05:23:12.273Z,23.38
2023-04-27T05:25:41.767Z,29.10
2023-04-27T05:28:09.697Z,22.45
2023-04-27T05:30:36.859Z,25.05
2023-04-27T05:33:04.307Z,35.97
2023-04-27T05:35:31.373Z,27.50
2023-04-27T05:37:58.143Z,19.75
2023-04-27T05:40:25.018Z,23.20
2023-04-27T05:42:51.603Z,19.25
2023-04-27T05:45:18.284Z,17.15
2023-04-27T05:47:45.074Z,20.88
2023-04-27T05:50:11.998Z,16.98
2023-04-27T05:52:39.101Z,16.85
2023-04-27T05:55:07.557Z,18.98
2023-04-27T05:57:34.152Z,20.17
2023-04-27T06:00:01.484Z,19.67
2023-04-27T06:02:41.882Z,19.83
2023-04-27T06:05:08.943Z,20.80
2023-04-27T06:07:37.335Z,16.73
2023-04-27T06:10:04.089Z,18.35
2023-04-27T06:12:30.719Z,14.10
2023-04-27T06:14:57.323Z,18.35
2023-04-27T06:17:23.929Z,16.90
2023-04-27T06:19:51.536Z,14.93
2023-04-27T06:22:18.191Z,16.38
2023-04-27T06:24:44.804Z,13.50
2023-04-27T06:27:11.711Z,13.25
2023-04-27T06:29:38.328Z,15.68
2023-04-27T06:32:06.881Z,17.45
2023-04-27T06:34:34.252Z,13.88
2023-04-27T06:37:00.856Z,10.00
2023-04-27T06:39:27.784Z,16.08
2023-04-27T06:41:54.742Z,10.35
2023-04-27T06:44:21.363Z,16.23
2023-04-27T06:46:47.958Z,17.75
2023-04-27T06:49:14.786Z,15.90
2023-04-27T06:51:41.754Z,15.27
2023-04-27T06:54:08.391Z,12.80
2023-04-27T06:56:35.248Z,10.45
2023-04-27T06:59:01.937Z,9.70
2023-04-27T07:01:28.582Z,7.85
2023-04-27T07:03:55.529Z,7.13
2023-04-27T07:06:22.848Z,9.30
2023-04-27T07:08:49.433Z,8.27
2023-04-27T07:11:16.407Z,8.82
2023-04-27T07:13:43.344Z,8.70
2023-04-27T07:16:10.045Z,11.02
2023-04-27T07:18:36.728Z,8.38
2023-04-27T07:21:03.359Z,14.80
2023-04-27T07:23:29.975Z,10.05
2023-04-27T07:25:57.717Z,6.60
2023-04-27T07:28:24.318Z,8.15
2023-04-27T07:30:51.404Z,9.05
2023-04-27T07:33:17.996Z,6.32
2023-04-27T07:35:44.588Z,6.70
2023-04-27T07:38:11.757Z,10.07
2023-04-27T07:40:38.347Z,7.93
2023-04-27T07:43:05.506Z,6.55
2023-04-27T07:45:32.712Z,6.53
2023-04-27T07:48:00.509Z,10.35
2023-04-27T07:50:29.819Z,5.82
2023-04-27T07:52:56.717Z,12.35
2023-04-27T07:55:23.991Z,6.63
2023-04-27T07:57:54.211Z,9.23
2023-04-27T08:00:21.981Z,10.10
2023-04-27T08:02:49.133Z,7.43
2023-04-27T08:05:16.139Z,18.00
2023-04-27T08:07:44.766Z,17.35
2023-04-27T08:10:11.860Z,19.98
2023-04-27T08:12:38.503Z,12.70
2023-04-27T08:15:07.012Z,18.13
2023-04-27T08:17:33.801Z,6.38
2023-04-27T08:20:00.559Z,5.97
2023-04-27T08:22:27.178Z,8.27
2023-04-27T08:24:53.728Z,6.50
2023-04-27T08:27:20.395Z,4.88
2023-04-27T08:29:47.864Z,6.97
2023-04-27T08:32:14.853Z,8.82
2023-04-27T08:34:41.919Z,16.88
2023-04-27T08:37:08.634Z,8.18
2023-04-27T08:39:35.303Z,7.72
2023-04-27T08:42:01.845Z,8.30
2023-04-27T08:44:28.596Z,7.20
2023-04-27T08:46:55.386Z,3.75
2023-04-27T08:49:22.122Z,4.97
2023-04-27T08:51:48.916Z,9.38
2023-04-27T08:54:15.514Z,4.63
2023-04-27T08:56:42.443Z,4.30
2023-04-27T08:59:14.845Z,3.05
2023-04-27T09:01:46.900Z,7.80
2023-04-27T09:04:14.034Z,12.10
2023-04-27T09:06:40.903Z,3.10
2023-04-27T09:09:07.564Z,10.32
2023-04-27T09:11:36.152Z,8.48
2023-04-27T09:14:04.705Z,6.50
2023-04-27T09:16:31.855Z,6.60
2023-04-27T09:18:59.012Z,5.57
2023-04-27T09:21:32.566Z,3.80
2023-04-27T09:24:09.944Z,4.72
2023-04-27T09:26:37.383Z,1.92
2023-04-27T09:29:03.985Z,4.07
2023-04-27T09:31:34.920Z,5.90
2023-04-27T09:34:02.060Z,10.77
2023-04-27T09:36:30.730Z,5.97
2023-04-27T09:38:58.154Z,5.13
2023-04-27T09:41:25.331Z,5.65
2023-04-27T09:43:52.824Z,2.50
2023-04-27T09:46:19.869Z,4.55
2023-04-27T09:48:46.864Z,3.20
2023-04-27T09:51:14.889Z,3.88
2023-04-27T09:53:48.279Z,6.50
2023-04-27T09:56:39.764Z,3.67
2023-04-27T09:59:33.058Z,6.65
2023-04-27T10:02:07.289Z,7.32
2023-04-27T10:04:55.405Z,3.63
2023-04-27T10:07:22.106Z,3.90
2023-04-27T10:09:51.243Z,3.97
2023-04-27T10:12:21.603Z,4.90
2023-04-27T10:14:51.047Z,5.70
2023-04-27T10:17:18.019Z,6.03
2023-04-27T10:19:57.964Z,2.90
2023-04-27T10:22:37.638Z,8.68
2023-04-27T10:25:22.502Z,4.35
2023-04-27T10:28:03.050Z,5.38
2023-04-27T10:30:37.508Z,4.25
2023-04-27T10:33:07.579Z,4.57
2023-04-27T10:35:40.054Z,4.90
2023-04-27T10:38:08.384Z,5.57
2023-04-27T10:40:36.056Z,7.10
2023-04-27T10:43:17.513Z,5.50
2023-04-27T10:45:44.486Z,5.70
2023-04-27T10:48:15.747Z,8.90
2023-04-27T10:50:44.538Z,3.13
2023-04-27T10:53:11.298Z,3.80
2023-04-27T10:55:38.060Z,6.43
2023-04-27T10:58:04.758Z,6.85
2023-04-27T11:00:32.910Z,3.58
2023-04-27T11:03:18.195Z,3.83
2023-04-27T11:05:47.001Z,4.55
2023-04-27T11:08:15.965Z,7.10
2023-04-27T11:10:50.310Z,8.25
2023-04-27T11:13:23.748Z,6.80
2023-04-27T11:15:57.776Z,4.95
2023-04-27T11:18:26.797Z,4.90
2023-04-27T11:20:55.053Z,6.38
2023-04-27T11:23:36.952Z,7.53
2023-04-27T11:26:11.052Z,5.43
2023-04-27T11:28:38.114Z,4.38
2023-04-27T11:31:04.952Z,5.07
2023-04-27T11:33:31.590Z,4.95
2023-04-27T11:35:58.514Z,5.88
2023-04-27T11:38:25.244Z,5.32
2023-04-27T11:41:07.730Z,7.30
2023-04-27T11:43:35.122Z,5.03
2023-04-27T11:46:05.995Z,6.10
2023-04-27T11:48:32.874Z,7.50
2023-04-27T11:51:00.588Z,4.75
2023-04-27T11:53:37.531Z,4.30
2023-04-27T11:56:05.989Z,5.72
2023-04-27T11:58:37.311Z,7.07
2023-04-27T12:01:04.883Z,7.55
2023-04-27T12:03:32.084Z,6.25
2023-04-27T12:06:11.389Z,10.07
2023-04-27T12:08:43.135Z,9.35
2023-04-27T12:11:10.051Z,5.78
2023-04-27T12:13:39.929Z,9.13
2023-04-27T12:16:06.926Z,9.27
2023-04-27T12:18:33.704Z,6.07
2023-04-27T12:21:03.131Z,5.18
2023-04-27T12:23:30.238Z,7.32
2023-04-27T12:25:56.880Z,8.32
2023-04-27T12:28:23.597Z,6.97
2023-04-27T12:30:50.405Z,6.03
2023-04-27T12:33:17.339Z,6.45
2023-04-27T12:35:44.214Z,6.50
2023-04-27T12:38:10.824Z,5.93
2023-04-27T12:40:37.691Z,6.55
2023-04-27T12:43:04.486Z,6.95
2023-04-27T12:45:32.436Z,5.55
2023-04-27T12:48:03.887Z,4.82
2023-04-27T12:50:31.972Z,5.78
2023-04-27T12:52:58.846Z,5.82
2023-04-27T12:57:58.311Z,7.60
2023-04-27T13:00:25.429Z,5.68
2023-04-27T13:02:52.776Z,4.00
2023-04-27T13:05:19.992Z,6.18
2023-04-27T13:07:46.755Z,7.28
2023-04-27T13:10:13.482Z,3.85
2023-04-27T13:12:40.390Z,4.03
2023-04-27T13:15:08.246Z,10.35
2023-04-27T13:17:34.904Z,7.70
2023-04-27T13:20:01.490Z,5.15
2023-04-27T13:22:28.220Z,8.05
2023-04-27T13:24:54.982Z,4.65
2023-04-27T13:27:22.553Z,6.20
2023-04-27T13:29:51.143Z,6.47
2023-04-27T13:32:18.617Z,8.13
2023-04-27T13:34:45.416Z,9.32
2023-04-27T13:37:12.221Z,6.63
2023-04-27T13:39:38.893Z,5.65
2023-04-27T13:42:06.483Z,5.22
2023-04-27T13:44:33.358Z,6.25
2023-04-27T13:47:01.418Z,10.15
2023-04-27T13:49:28.152Z,6.03
2023-04-27T13:51:54.807Z,7.50
2023-04-27T13:54:21.631Z,7.82
2023-04-27T13:56:48.743Z,8.70
2023-04-27T13:59:16.629Z,4.07
2023-04-27T14:01:43.704Z,6.13
2023-04-27T14:04:10.760Z,7.13
2023-04-27T14:06:37.652Z,7.38
2023-04-27T14:09:04.437Z,7.45
2023-04-27T14:11:31.950Z,6.35
2023-04-27T14:14:03.715Z,5.60
2023-04-27T14:16:30.710Z,3.90
2023-04-27T14:18:57.392Z,7.93
2023-04-27T14:21:24.562Z,5.85
2023-04-27T14:23:51.262Z,6.85
2023-04-27T14:26:18.082Z,5.95
2023-04-27T14:28:44.669Z,7.63
2023-04-27T14:31:11.316Z,7.10
2023-04-27T14:33:37.942Z,8.23
2023-04-27T14:36:04.689Z,5.70
2023-04-27T14:38:31.905Z,7.22
2023-04-27T14:41:00.538Z,9.45
2023-04-27T14:43:27.129Z,11.15
2023-04-27T14:46:01.839Z,6.97
2023-04-27T14:48:35.178Z,7.93
2023-04-27T14:51:02.240Z,6.72
2023-04-27T14:53:28.854Z,8.93
2023-04-27T14:55:55.451Z,7.63
2023-04-27T14:58:22.082Z,8.63
2023-04-27T15:00:50.398Z,5.35
2023-04-27T15:03:17.612Z,5.80
2023-04-27T15:05:44.422Z,8.43
2023-04-27T15:08:11.550Z,9.25
2023-04-27T15:10:38.133Z,7.13
2023-04-27T15:13:04.939Z,8.13
2023-04-27T15:15:31.566Z,6.07
2023-04-27T15:17:58.981Z,9.98
2023-04-27T15:20:25.616Z,7.15
2023-04-27T15:22:52.631Z,7.30
2023-04-27T15:25:19.284Z,12.18
2023-04-27T15:27:45.981Z,7.13
2023-04-27T15:30:14.354Z,5.20
2023-04-27T15:32:41.158Z,6.07
2023-04-27T15:35:08.404Z,7.90
2023-04-27T15:37:36.585Z,9.30
2023-04-27T15:40:04.229Z,10.50
2023-04-27T15:42:30.910Z,8.10
2023-04-27T15:44:58.341Z,7.18
2023-04-27T15:47:24.914Z,12.02
2023-04-27T15:49:57.588Z,10.45
2023-04-27T15:52:28.173Z,8.73
2023-04-27T15:54:55.035Z,10.43
2023-04-27T15:57:21.669Z,8.18
2023-04-27T15:59:48.592Z,7.68
2023-04-27T16:02:15.382Z,8.23
2023-04-27T16:04:42.070Z,9.45
2023-04-27T16:07:08.646Z,10.13
2023-04-27T16:09:35.655Z,9.27
2023-04-27T16:12:03.689Z,10.05
2023-04-27T16:14:30.374Z,8.63
2023-04-27T16:17:00.806Z,8.07
2023-04-27T16:19:27.537Z,9.77
2023-04-27T16:21:54.271Z,9.48
2023-04-27T16:24:21.249Z,11.52
2023-04-27T16:26:48.176Z,11.35
2023-04-27T16:29:15.217Z,7.18
2023-04-27T16:31:42.900Z,10.88
2023-04-27T16:34:09.669Z,9.75
2023-04-27T16:36:36.468Z,11.45
2023-04-27T16:39:04.901Z,10.30
2023-04-27T16:41:31.624Z,11.30
2023-04-27T16:43:58.316Z,12.98
2023-04-27T16:46:25.029Z,14.52
2023-04-27T16:48:51.709Z,7.28
2023-04-27T16:51:18.343Z,12.32
2023-04-27T16:53:44.896Z,13.32
2023-04-27T16:56:13.377Z,10.95
2023-04-27T16:58:40.499Z,12.57
2023-04-27T17:01:07.587Z,10.88
2023-04-27T17:03:35.830Z,14.43
2023-04-27T17:06:03.048Z,11.85
2023-04-27T17:08:29.665Z,10.93
2023-04-27T17:10:56.306Z,8.45
2023-04-27T17:13:22.920Z,19.92
2023-04-27T17:15:49.934Z,9.20
2023-04-27T17:18:16.765Z,10.32
2023-04-27T17:20:43.437Z,14.13
2023-04-27T17:23:10.048Z,10.40
2023-04-27T17:25:36.795Z,9.95
2023-04-27T17:28:03.699Z,9.02
2023-04-27T17:30:30.376Z,12.85
2023-04-27T17:32:57.144Z,15.48
2023-04-27T17:35:23.847Z,11.63
2023-04-27T17:37:52.066Z,9.32
2023-04-27T17:40:20.998Z,10.90
2023-04-27T17:42:47.846Z,10.95
2023-04-27T17:45:14.580Z,13.02
2023-04-27T17:47:41.450Z,8.07
2023-04-27T17:50:08.660Z,9.27
2023-04-27T17:52:35.692Z,8.00
2023-04-27T17:55:02.950Z,9.48
2023-04-27T17:57:29.664Z,12.02
2023-04-27T17:59:56.258Z,9.55
2023-04-27T18:02:23.193Z,10.43
2023-04-27T18:04:53.990Z,8.18
2023-04-27T18:07:20.640Z,11.13
2023-04-27T18:09:47.267Z,12.23
2023-04-27T18:12:13.987Z,12.27
2023-04-27T18:14:40.682Z,10.38
2023-04-27T18:17:07.307Z,6.70
2023-04-27T18:19:34.005Z,14.77
2023-04-27T18:22:00.698Z,10.00
2023-04-27T18:24:27.310Z,12.10
2023-04-27T18:26:53.975Z,9.70
2023-04-27T18:29:20.636Z,8.30
2023-04-27T18:31:49.426Z,9.80
2023-04-27T18:34:16.276Z,10.00
2023-04-27T18:36:43.063Z,8.98
2023-04-27T18:39:09.692Z,10.75
2023-04-27T18:41:36.319Z,10.38
2023-04-27T18:44:09.103Z,11.77
2023-04-27T18:46:35.844Z,12.35
2023-04-27T18:49:02.435Z,11.90
2023-04-27T18:51:29.069Z,13.30
2023-04-27T18:53:56.073Z,9.00
2023-04-27T18:56:22.918Z,9.00
2023-04-27T18:58:49.861Z,8.95
2023-04-27T19:01:23.911Z,8.18
2023-04-27T19:03:51.109Z,8.18
2023-04-27T19:06:18.985Z,11.88
2023-04-27T19:08:47.426Z,10.45
2023-04-27T19:11:14.229Z,11.98
2023-04-27T19:13:43.044Z,12.25
2023-04-27T19:16:10.367Z,7.47
2023-04-27T19:18:37.270Z,14.13
2023-04-27T19:21:04.022Z,12.30
2023-04-27T19:23:30.886Z,14.38
2023-04-27T19:26:02.760Z,9.82
2023-04-27T19:28:36.820Z,13.75
2023-04-27T19:31:03.472Z,12.48
2023-04-27T19:33:30.118Z,10.10
2023-04-27T19:35:58.426Z,10.80
2023-04-27T19:38:25.600Z,11.82
2023-04-27T19:40:52.279Z,11.90
2023-04-27T19:43:19.090Z,12.38
2023-04-27T19:45:45.822Z,12.02
2023-04-27T19:48:12.710Z,10.48
2023-04-27T19:50:42.940Z,12.90
2023-04-27T19:53:09.678Z,8.95
2023-04-27T19:55:37.029Z,11.60
2023-04-27T19:58:03.635Z,12.77
2023-04-27T20:00:30.643Z,14.35
2023-04-27T20:02:57.410Z,15.88
2023-04-27T20:05:24.637Z,8.95
2023-04-27T20:07:53.039Z,11.48
2023-04-27T20:10:19.649Z,13.93
2023-04-27T20:12:56.073Z,11.38
2023-04-27T20:15:24.277Z,12.00
2023-04-27T20:17:51.446Z,11.23
2023-04-27T20:20:18.178Z,17.77
2023-04-27T20:22:44.891Z,11.85
2023-04-27T20:25:13.930Z,10.68
2023-04-27T20:27:41.003Z,16.80
2023-04-27T20:30:08.161Z,10.20
2023-04-27T20:32:34.901Z,11.75
2023-04-27T20:35:02.544Z,11.27
2023-04-27T20:37:29.362Z,10.20
2023-04-27T20:39:56.001Z,12.40
2023-04-27T20:42:22.644Z,14.32
2023-04-27T20:44:49.307Z,16.48
2023-04-27T20:47:16.180Z,10.60
2023-04-27T20:49:42.896Z,17.65
2023-04-27T20:52:09.550Z,14.57
2023-04-27T20:54:36.488Z,11.57
2023-04-27T20:57:08.364Z,14.77
2023-04-27T20:59:35.012Z,9.95
2023-04-27T21:02:01.803Z,12.18
2023-04-27T21:04:28.776Z,12.45
2023-04-27T21:06:55.481Z,16.95
2023-04-27T21:09:22.101Z,12.00
2023-04-27T21:11:48.887Z,14.52
2023-04-27T21:14:15.740Z,17.35
2023-04-27T21:16:42.787Z,17.52
2023-04-27T21:19:12.916Z,12.20
2023-04-27T21:21:39.588Z,11.50
2023-04-27T21:24:08.199Z,14.73
2023-04-27T21:26:35.283Z,12.73
2023-04-27T21:29:04.839Z,11.27
2023-04-27T21:31:32.481Z,11.85
2023-04-27T21:33:59.203Z,9.15
2023-04-27T21:36:26.003Z,10.85
2023-04-27T21:38:52.630Z,12.20
2023-04-27T21:41:19.268Z,12.10
2023-04-27T21:43:46.136Z,13.88
2023-04-27T21:46:12.785Z,12.10
2023-04-27T21:48:39.464Z,10.60
2023-04-27T21:51:06.071Z,12.43
2023-04-27T21:53:32.758Z,10.25
2023-04-27T21:55:59.666Z,10.68
2023-04-27T21:58:26.288Z,10.27
2023-04-27T22:00:52.920Z,10.57
2023-04-27T22:03:19.869Z,10.20
2023-04-27T22:05:48.955Z,13.30
2023-04-27T22:08:17.296Z,10.43
2023-04-27T22:10:44.811Z,7.97
2023-04-27T22:13:18.986Z,11.68
2023-04-27T22:15:46.481Z,9.85
2023-04-27T22:18:14.380Z,13.18
2023-04-27T22:20:42.284Z,11.98
2023-04-27T22:23:09.440Z,10.27
2023-04-27T22:25:36.313Z,10.07
2023-04-27T22:28:03.022Z,10.77
2023-04-27T22:30:29.967Z,15.80
2023-04-27T22:32:56.804Z,13.00
2023-04-27T22:35:26.963Z,9.70
2023-04-27T22:37:58.443Z,9.15
2023-04-27T22:40:25.151Z,10.52
2023-04-27T22:42:52.410Z,10.27
2023-04-27T22:45:19.037Z,8.80
2023-04-27T22:47:46.104Z,10.90
2023-04-27T22:50:13.228Z,12.77
2023-04-27T22:52:42.384Z,12.60
2023-04-27T22:55:10.083Z,12.13
2023-04-27T22:57:37.238Z,12.32
2023-04-27T23:00:11.483Z,8.73
2023-04-27T23:02:39.598Z,12.20
2023-04-27T23:05:10.865Z,11.73
2023-04-27T23:07:38.120Z,9.80
2023-04-27T23:10:05.730Z,13.27
2023-04-27T23:12:32.389Z,12.40
2023-04-27T23:14:59.340Z,11.90
2023-04-27T23:17:31.976Z,13.80
2023-04-27T23:20:00.533Z,15.43
2023-04-27T23:22:27.948Z,10.68
2023-04-27T23:24:54.600Z,13.80
2023-04-27T23:27:21.825Z,6.82
2023-04-27T23:29:48.655Z,8.75
2023-04-27T23:32:15.260Z,13.27
2023-04-27T23:34:42.018Z,13.07
2023-04-27T23:37:08.717Z,14.35
2023-04-27T23:39:35.318Z,12.02
2023-04-27T23:42:01.905Z,15.93
2023-04-27T23:44:28.581Z,9.50
2023-04-27T23:46:55.174Z,9.30
2023-04-27T23:49:21.833Z,9.57
2023-04-27T23:51:49.879Z,11.00
2023-04-27T23:54:16.625Z,11.77
2023-04-27T23:56:43.434Z,10.50
2023-04-27T23:59:11.004Z,9.15
